Time;durP1;ratioP1;P1;durP2;ratioP2;P2;SDS_P1;SDS_P2;PMS_P1;PMS_P2;Temp;Humidity;BMP_temperature;BMP_pressure;BME280_temperature;BME280_humidity;BME280_pressure;Samples;Min_cycle;Max_cycle;Signal;HPM_P1;HPM_P2
2021/12/29 00:01:38;;;;;;;;;3.00;2.25;;;;;18.27;44.61;100414.97;5075796;27;50944;-46
2021/12/29 00:04:04;;;;;;;;;2.50;2.50;;;;;18.27;44.57;100417.72;5075938;27;51094;-47
2021/12/29 00:06:29;;;;;;;;;2.00;1.00;;;;;18.27;44.53;100425.94;5078839;27;51378;-47
2021/12/29 00:08:55;;;;;;;;;3.00;2.75;;;;;18.27;44.34;100414.13;5079001;28;51031;-49
2021/12/29 00:11:21;;;;;;;;;1.25;1.25;;;;;18.26;44.24;100421.50;5079111;27;51076;-48
2021/12/29 00:13:47;;;;;;;;;2.25;2.00;;;;;18.27;44.35;100434.16;5079145;27;51046;-47
2021/12/29 00:16:13;;;;;;;;;4.00;1.75;;;;;18.27;44.35;100436.91;5079289;27;50956;-47
2021/12/29 00:18:38;;;;;;;;;2.25;1.50;;;;;18.27;44.52;100439.66;5078386;27;51840;-46
2021/12/29 00:21:08;;;;;;;;;4.75;1.00;;;;;18.27;44.41;100433.31;5078820;28;51153;-46
2021/12/29 00:23:34;;;;;;;;;2.25;2.25;;;;;18.27;44.46;100439.66;5079006;27;51053;-47
2021/12/29 00:26:00;;;;;;;;;2.50;1.75;;;;;18.26;44.69;100473.59;5079260;27;51086;-45
2021/12/29 00:28:25;;;;;;;;;4.75;2.00;;;;;18.27;44.37;100477.19;5077155;28;53039;-46
2021/12/29 00:30:51;;;;;;;;;2.00;1.75;;;;;18.26;44.29;100481.00;5079038;27;51114;-47
2021/12/29 00:33:17;;;;;;;;;1.00;1.00;;;;;18.28;44.69;100484.34;5078810;27;50989;-49
2021/12/29 00:35:44;;;;;;;;;3.25;2.00;;;;;18.27;44.48;100482.69;5079123;27;51438;-47
2021/12/29 00:38:10;;;;;;;;;1.00;1.00;;;;;18.27;44.37;100490.91;5078684;27;51163;-48
2021/12/29 00:40:38;;;;;;;;;2.50;2.50;;;;;18.27;44.77;100491.75;5078737;27;51052;-48
2021/12/29 00:43:05;;;;;;;;;1.75;1.75;;;;;18.27;44.60;100501.88;5078817;27;50911;-48
2021/12/29 00:45:33;;;;;;;;;2.50;2.00;;;;;18.27;44.63;100504.59;5079025;27;51240;-48
2021/12/29 00:47:58;;;;;;;;;5.00;3.00;;;;;18.27;44.57;100496.38;5078177;27;51865;-51
2021/12/29 00:50:24;;;;;;;;;4.25;1.50;;;;;18.27;44.57;100501.88;5078433;27;51253;-51
2021/12/29 00:52:50;;;;;;;;;3.50;3.00;;;;;18.27;44.60;100502.72;5078949;27;51219;-50
2021/12/29 00:55:17;;;;;;;;;5.25;3.00;;;;;18.26;44.44;100501.03;5078783;27;51413;-47
2021/12/29 00:57:44;;;;;;;;;3.75;2.00;;;;;18.27;44.44;100505.44;5078338;27;52000;-46
2021/12/29 01:00:17;;;;;;;;;4.50;3.00;;;;;18.26;44.62;100501.03;5078554;27;51322;-47
2021/12/29 01:02:43;;;;;;;;;3.50;2.00;;;;;18.27;44.45;100494.47;5078336;27;51088;-50
2021/12/29 01:05:09;;;;;;;;;2.75;2.25;;;;;18.26;44.62;100490.06;5078544;27;51252;-51
2021/12/29 01:07:35;;;;;;;;;2.00;2.00;;;;;18.27;44.58;100493.63;5078278;27;52137;-51
2021/12/29 01:10:05;;;;;;;;;4.50;2.25;;;;;18.26;44.63;100501.03;5077874;27;50964;-48
2021/12/29 01:12:31;;;;;;;;;4.00;2.00;;;;;18.27;44.46;100496.38;5078044;27;51123;-52
2021/12/29 01:14:57;;;;;;;;;4.25;2.00;;;;;18.27;44.28;100504.59;5078376;27;51057;-50
2021/12/29 01:17:24;;;;;;;;;2.25;2.00;;;;;18.27;44.54;100508.19;5077093;27;51719;-51
2021/12/29 01:19:54;;;;;;;;;5.75;4.00;;;;;18.26;44.54;100517.47;5077801;27;51291;-50
2021/12/29 01:22:23;;;;;;;;;2.00;2.00;;;;;18.26;44.48;100512.00;5078457;27;51013;-53
2021/12/29 01:24:49;;;;;;;;;3.00;1.50;;;;;18.26;44.49;100514.72;5078425;27;51100;-49
2021/12/29 01:27:15;;;;;;;;;1.00;1.00;;;;;18.27;44.37;100523.81;5077843;27;51404;-51
2021/12/29 01:29:41;;;;;;;;;2.50;2.00;;;;;18.26;44.50;100514.72;5077999;27;51082;-51
2021/12/29 01:32:07;;;;;;;;;4.50;2.00;;;;;18.27;44.53;100512.84;5078123;28;50997;-50
2021/12/29 01:34:33;;;;;;;;;2.50;2.50;;;;;18.27;44.52;100504.59;5077877;27;51308;-50
2021/12/29 01:36:59;;;;;;;;;3.50;2.00;;;;;18.27;44.60;100501.88;5077478;27;51771;-52
2021/12/29 01:39:24;;;;;;;;;3.00;3.00;;;;;18.27;44.76;100502.72;5077771;27;51105;-49
2021/12/29 01:41:52;;;;;;;;;4.25;2.00;;;;;18.26;44.82;100506.50;5077929;28;51052;-49
2021/12/29 01:44:23;;;;;;;;;4.50;4.50;;;;;18.25;44.58;100507.56;5078386;27;51313;-51
2021/12/29 01:46:50;;;;;;;;;3.75;1.50;;;;;18.27;44.58;100507.34;5077595;27;51980;-52
2021/12/29 01:49:15;;;;;;;;;3.00;2.00;;;;;18.25;44.81;100507.56;5077267;27;50959;-49
2021/12/29 01:52:01;;;;;;;;;2.25;1.50;;;;;18.26;44.64;100511.16;5077803;27;51025;-48
2021/12/29 01:54:26;;;;;;;;;2.00;1.00;;;;;18.27;44.52;100508.19;5078077;27;51954;-51
2021/12/29 01:56:56;;;;;;;;;2.00;1.75;;;;;18.26;44.57;100514.72;5077595;27;51581;-50
2021/12/29 01:59:25;;;;;;;;;5.00;3.75;;;;;18.25;44.54;100521.28;5077518;27;51094;-47
2021/12/29 02:01:50;;;;;;;;;3.25;2.75;;;;;18.27;44.41;100523.81;5077519;27;50997;-46
2021/12/29 02:04:16;;;;;;;;;4.50;2.50;;;;;18.26;44.69;100527.59;5077561;27;51366;-47
2021/12/29 02:06:42;;;;;;;;;5.75;2.00;;;;;18.27;44.63;100532.03;5077421;28;51111;-48
2021/12/29 02:09:08;;;;;;;;;3.75;3.00;;;;;18.25;44.49;100535.00;5077505;27;51122;-47
2021/12/29 02:11:37;;;;;;;;;1.50;1.50;;;;;18.26;45.08;100536.66;5077392;27;51078;-51
2021/12/29 02:14:05;;;;;;;;;3.00;3.00;;;;;18.27;44.50;100529.28;5077483;27;51322;-47
2021/12/29 02:16:30;;;;;;;;;2.75;2.75;;;;;18.25;44.66;100524.03;5077306;27;51771;-45
2021/12/29 02:18:59;;;;;;;;;5.00;2.50;;;;;18.27;44.65;100529.28;5076824;27;51169;-49
2021/12/29 02:21:26;;;;;;;;;3.00;3.00;;;;;18.25;44.67;100515.78;5077513;28;51176;-47
2021/12/29 02:24:37;;;;;;;;;2.00;1.00;;;;;18.26;44.67;100527.59;5077251;27;51329;-46
2021/12/29 02:26:43;;;;;;;;;2.75;1.50;;;;;18.26;44.63;100530.34;5068396;28;51153;-49
2021/12/29 02:29:11;;;;;;;;;1.00;1.00;;;;;18.25;44.58;100521.28;5076953;27;50985;-45
2021/12/29 02:31:37;;;;;;;;;2.75;1.00;;;;;18.25;44.74;100524.03;5077129;27;51328;-49
2021/12/29 02:34:05;;;;;;;;;1.00;1.00;;;;;18.26;44.62;100528.44;5076963;27;51306;-45
2021/12/29 02:36:31;;;;;;;;;2.00;2.00;;;;;18.25;44.86;100529.50;5076681;27;52263;-49
2021/12/29 02:38:57;;;;;;;;;2.75;2.00;;;;;18.25;44.89;100529.50;5076637;27;51340;-49
2021/12/29 02:41:27;;;;;;;;;3.50;1.50;;;;;18.26;44.63;100524.88;5076910;27;51189;-46
2021/12/29 02:43:59;;;;;;;;;1.75;1.75;;;;;18.26;44.69;100528.44;5077144;27;51135;-45
2021/12/29 02:46:26;;;;;;;;;3.75;2.00;;;;;18.25;44.79;100518.53;5076393;27;52929;-46
2021/12/29 02:48:59;;;;;;;;;1.50;1.50;;;;;18.25;44.59;100515.78;5076780;27;51234;-47
2021/12/29 02:51:34;;;;;;;;;3.25;2.00;;;;;18.25;44.65;100510.31;5076798;27;51079;-47
2021/12/29 02:54:00;;;;;;;;;2.00;2.00;;;;;18.26;44.45;100513.91;5075701;28;51296;-45
2021/12/29 02:56:27;;;;;;;;;4.50;2.00;;;;;18.25;44.67;100514.97;5076623;27;51041;-48
2021/12/29 02:58:53;;;;;;;;;3.50;2.25;;;;;18.24;44.70;100525.09;5076594;28;51046;-48
2021/12/29 03:01:19;;;;;;;;;1.00;1.00;;;;;18.25;45.00;100523.19;5076640;27;51073;-51
2021/12/29 03:03:45;;;;;;;;;2.50;1.25;;;;;18.25;44.70;100520.44;5076908;27;51068;-50
2021/12/29 03:06:12;;;;;;;;;2.00;2.00;;;;;18.26;44.77;100525.69;5076238;28;51049;-47
2021/12/29 03:08:38;;;;;;;;;2.25;1.00;;;;;18.25;44.56;100520.44;5076427;27;51270;-47
2021/12/29 03:11:04;;;;;;;;;2.00;1.00;;;;;18.25;44.69;100515.78;5076712;27;51010;-48
2021/12/29 03:13:32;;;;;;;;;4.00;2.75;;;;;18.25;44.90;100515.78;5076556;27;51127;-52
2021/12/29 03:15:59;;;;;;;;;3.25;1.00;;;;;18.26;44.70;100522.97;5076112;27;51080;-50
2021/12/29 03:18:25;;;;;;;;;2.00;2.00;;;;;18.25;44.88;100521.28;5076118;28;51179;-50
2021/12/29 03:20:51;;;;;;;;;3.25;1.50;;;;;18.25;44.62;100526.75;5076337;27;51026;-49
2021/12/29 03:23:17;;;;;;;;;1.00;1.00;;;;;18.24;44.74;100516.84;5076569;27;51056;-50
2021/12/29 03:25:43;;;;;;;;;0.00;0.00;;;;;18.24;44.70;100516.84;5075923;27;51115;-49
2021/12/29 03:28:08;;;;;;;;;1.50;1.50;;;;;18.25;44.88;100515.78;5076189;27;51117;-49
2021/12/29 03:30:41;;;;;;;;;2.25;0.75;;;;;18.24;44.87;100514.13;5076183;27;51097;-51
2021/12/29 03:33:07;;;;;;;;;2.75;1.25;;;;;18.25;44.64;100525.91;5076450;27;51199;-49
2021/12/29 03:35:39;;;;;;;;;3.75;2.00;;;;;18.26;44.70;100533.09;5075844;28;51843;-48
2021/12/29 03:38:08;;;;;;;;;2.50;1.25;;;;;18.25;44.82;100526.75;5076157;27;51415;-51
2021/12/29 03:40:36;;;;;;;;;3.00;2.00;;;;;18.24;44.76;100527.81;5075393;27;51128;-52
2021/12/29 03:43:05;;;;;;;;;1.00;1.00;;;;;18.24;44.87;100519.59;5076393;27;51013;-51
2021/12/29 03:45:30;;;;;;;;;2.50;1.00;;;;;18.25;44.81;100515.78;5075991;27;51787;-47
2021/12/29 03:47:56;;;;;;;;;1.75;1.00;;;;;18.25;44.67;100517.69;5075904;27;51311;-50
2021/12/29 03:50:21;;;;;;;;;2.25;1.00;;;;;18.23;44.84;100515.16;5076016;28;51018;-50
2021/12/29 03:52:47;;;;;;;;;0.75;0.75;;;;;18.25;44.86;100526.75;5076224;28;51065;-50
2021/12/29 03:55:13;;;;;;;;;4.25;2.75;;;;;18.26;44.84;100522.13;5075852;28;51956;-49
2021/12/29 03:57:39;;;;;;;;;2.00;1.00;;;;;18.25;44.79;100507.56;5075969;28;51228;-51
2021/12/29 04:00:08;;;;;;;;;1.00;1.00;;;;;18.26;44.72;100508.41;5076006;27;51247;-51
2021/12/29 04:02:33;;;;;;;;;3.25;1.00;;;;;18.24;44.86;100497.66;5075930;27;51149;-52
2021/12/29 04:05:00;;;;;;;;;1.00;1.00;;;;;18.26;44.80;100502.94;5075410;27;51976;-51
2021/12/29 04:07:25;;;;;;;;;1.25;1.25;;;;;18.24;44.86;100503.16;5075931;27;51065;-50
2021/12/29 04:09:51;;;;;;;;;2.00;1.00;;;;;18.25;44.89;100504.81;5075754;28;51032;-51
2021/12/29 04:12:16;;;;;;;;;2.00;0.25;;;;;18.25;45.03;100504.00;5076090;27;51340;-47
2021/12/29 04:14:41;;;;;;;;;0.00;0.00;;;;;18.25;44.71;100504.00;5075497;27;51725;-52
2021/12/29 04:17:12;;;;;;;;;2.50;0.75;;;;;18.25;44.78;100504.81;5075760;27;50962;-49
2021/12/29 04:22:23;;;;;;;;;1.75;1.50;;;;;18.25;44.78;100512.22;5075808;28;51131;-46
2021/12/29 04:24:49;;;;;;;;;0.00;0.00;;;;;18.26;45.06;100511.16;5075266;27;51020;-45
2021/12/29 04:27:15;;;;;;;;;1.00;1.00;;;;;18.26;44.78;100512.00;5075426;27;51359;-46
2021/12/29 04:29:41;;;;;;;;;2.00;1.00;;;;;18.25;44.79;100510.31;5075743;27;51307;-47
2021/12/29 04:32:06;;;;;;;;;0.50;0.00;;;;;18.25;44.75;100510.31;5075853;27;51142;-49
2021/12/29 04:34:32;;;;;;;;;1.00;1.00;;;;;18.25;45.00;100509.47;5075019;28;51705;-47
2021/12/29 04:36:57;;;;;;;;;0.00;0.00;;;;;18.25;44.66;100510.31;5075334;27;51078;-48
2021/12/29 04:39:22;;;;;;;;;0.25;0.25;;;;;18.25;44.92;100515.78;5075510;27;51006;-46
2021/12/29 04:41:48;;;;;;;;;1.00;1.00;;;;;18.26;44.83;100511.16;5075692;27;51160;-45
2021/12/29 04:44:13;;;;;;;;;1.00;1.00;;;;;18.25;44.83;100499.34;5075288;27;51965;-47
2021/12/29 04:46:41;;;;;;;;;0.50;0.50;;;;;18.24;44.87;100503.16;5075415;27;51064;-47
2021/12/29 04:49:11;;;;;;;;;2.00;1.00;;;;;18.25;44.87;100501.25;5075009;27;51179;-45
2021/12/29 04:51:43;;;;;;;;;2.50;1.75;;;;;18.24;45.12;100499.56;5075520;27;51086;-46
2021/12/29 04:54:09;;;;;;;;;0.75;0.00;;;;;18.26;44.95;100494.69;5078323;27;51883;-45
2021/12/29 04:56:35;;;;;;;;;3.75;0.00;;;;;18.26;44.89;100490.06;5078636;27;51136;-46
2021/12/29 04:59:00;;;;;;;;;1.50;0.75;;;;;18.25;45.03;100495.75;5078499;27;51033;-48
2021/12/29 05:01:26;;;;;;;;;1.75;1.75;;;;;18.24;44.90;100480.38;5078713;28;51427;-47
2021/12/29 05:03:52;;;;;;;;;3.50;1.00;;;;;18.25;44.96;100490.28;5078262;28;51071;-47
2021/12/29 05:09:02;;;;;;;;;1.50;1.00;;;;;18.25;45.00;100480.16;5078570;28;51018;-45
2021/12/29 05:11:27;;;;;;;;;2.75;0.50;;;;;18.25;44.84;100480.16;5078888;28;51006;-46
2021/12/29 05:13:53;;;;;;;;;0.00;0.00;;;;;18.26;45.03;100481.00;5077807;28;52802;-50
2021/12/29 05:16:18;;;;;;;;;2.00;0.00;;;;;18.25;45.14;100480.16;5078365;28;51076;-46
2021/12/29 05:18:45;;;;;;;;;1.00;1.00;;;;;18.25;45.16;100474.66;5077898;27;51283;-47
2021/12/29 05:21:11;;;;;;;;;0.50;0.50;;;;;18.25;44.89;100465.59;5078226;27;50983;-47
2021/12/29 05:23:36;;;;;;;;;1.00;0.00;;;;;18.26;44.94;100461.81;5078186;27;50969;-46
2021/12/29 05:26:02;;;;;;;;;0.00;0.00;;;;;18.26;44.91;100467.28;5077995;27;51124;-47
2021/12/29 05:28:28;;;;;;;;;0.00;0.00;;;;;18.25;44.87;100460.97;5078270;27;51180;-45
2021/12/29 05:30:53;;;;;;;;;0.25;0.25;;;;;18.26;45.21;100465.38;5078451;27;50985;-46
2021/12/29 05:33:19;;;;;;;;;0.25;0.25;;;;;18.25;45.15;100457.38;5077836;27;51023;-48
2021/12/29 05:35:45;;;;;;;;;2.75;1.50;;;;;18.26;45.02;100456.31;5078000;28;51139;-46
2021/12/29 05:38:10;;;;;;;;;2.25;0.50;;;;;18.26;45.12;100453.56;5077875;27;51039;-47
2021/12/29 05:40:36;;;;;;;;;0.00;0.00;;;;;18.26;45.25;100450.84;5078415;27;51127;-46
2021/12/29 05:43:01;;;;;;;;;0.00;0.00;;;;;18.25;45.14;100444.50;5077794;27;51705;-47
2021/12/29 05:45:28;;;;;;;;;0.75;0.75;;;;;18.26;45.04;100448.09;5076706;28;51100;-47
2021/12/29 05:47:55;;;;;;;;;1.00;1.00;;;;;18.26;45.04;100450.84;5077827;27;51017;-45
2021/12/29 05:50:23;;;;;;;;;1.00;1.00;;;;;18.26;45.12;100454.41;5078055;27;51389;-50
2021/12/29 05:52:49;;;;;;;;;0.00;0.00;;;;;18.25;45.17;100439.03;5077817;27;51150;-49
2021/12/29 05:55:14;;;;;;;;;1.00;0.00;;;;;18.25;45.05;100439.03;5077847;27;51130;-46
2021/12/29 05:57:40;;;;;;;;;1.75;0.00;;;;;18.25;45.08;100433.53;5077971;27;51092;-48
2021/12/29 06:00:08;;;;;;;;;0.00;0.00;;;;;18.26;44.83;100439.88;5077818;28;51940;-49
2021/12/29 06:02:33;;;;;;;;;1.25;1.25;;;;;18.26;45.10;100431.63;5076935;28;51814;-47
2021/12/29 06:04:58;;;;;;;;;0.00;0.00;;;;;18.26;45.08;100440.72;5077400;28;50938;-52
2021/12/29 06:07:24;;;;;;;;;4.00;0.00;;;;;18.26;45.23;100437.13;5077716;27;51159;-50
2021/12/29 06:09:49;;;;;;;;;0.00;0.00;;;;;18.26;45.08;100432.47;5077752;27;50991;-45
2021/12/29 06:12:15;;;;;;;;;2.25;1.25;;;;;18.25;45.23;100430.81;5077576;27;51532;-48
2021/12/29 06:14:40;;;;;;;;;0.00;0.00;;;;;18.26;45.26;100432.47;5077222;28;51068;-45
2021/12/29 06:17:06;;;;;;;;;0.25;0.25;;;;;18.26;45.21;100437.13;5077543;27;51202;-45
2021/12/29 06:19:33;;;;;;;;;1.00;1.00;;;;;18.26;44.96;100428.91;5076898;28;51264;-46
2021/12/29 06:21:59;;;;;;;;;0.25;0.25;;;;;18.27;45.08;100433.31;5077276;27;51066;-46
2021/12/29 06:24:24;;;;;;;;;0.75;0.75;;;;;18.25;45.10;100430.81;5077419;27;51183;-45
2021/12/29 06:26:50;;;;;;;;;0.00;0.00;;;;;18.25;45.47;100441.78;5076965;27;51161;-46
2021/12/29 06:29:15;;;;;;;;;1.00;0.25;;;;;18.24;45.24;100437.34;5077353;28;51164;-46
2021/12/29 06:31:44;;;;;;;;;1.00;0.00;;;;;18.24;45.32;100426.38;5076711;28;50981;-48
2021/12/29 06:34:10;;;;;;;;;0.00;0.00;;;;;18.26;45.07;100440.72;5075251;28;51223;-45
2021/12/29 06:36:35;;;;;;;;;1.00;0.00;;;;;18.25;45.21;100439.03;5076814;28;50981;-46
2021/12/29 06:39:01;;;;;;;;;0.00;0.00;;;;;18.25;45.20;100444.50;5077002;27;51272;-49
2021/12/29 06:41:26;;;;;;;;;2.00;0.00;;;;;18.24;45.07;100442.84;5076725;27;50951;-48
2021/12/29 06:43:51;;;;;;;;;1.00;1.00;;;;;18.25;45.36;100443.66;5076724;27;51073;-51
2021/12/29 06:46:17;;;;;;;;;1.75;0.75;;;;;18.25;45.31;100435.44;5076977;27;50976;-51
2021/12/29 06:48:42;;;;;;;;;1.00;0.75;;;;;18.26;45.31;100437.13;5076655;27;50939;-50
2021/12/29 06:51:07;;;;;;;;;2.25;1.00;;;;;18.25;45.27;100436.28;5075287;28;51668;-52
2021/12/29 06:53:33;;;;;;;;;1.00;0.75;;;;;18.25;45.24;100441.78;5076738;28;50875;-49
2021/12/29 06:55:59;;;;;;;;;0.25;0.00;;;;;18.26;45.27;100453.56;5076857;28;50989;-49
2021/12/29 06:58:25;;;;;;;;;0.00;0.00;;;;;18.26;45.27;100437.13;5076867;27;51204;-52
2021/12/29 07:00:50;;;;;;;;;1.00;1.00;;;;;18.26;45.36;100435.22;5076296;28;51119;-49
2021/12/29 07:03:15;;;;;;;;;2.00;0.75;;;;;18.26;45.36;100443.44;5076598;27;51005;-52
2021/12/29 07:05:41;;;;;;;;;0.00;0.00;;;;;18.26;45.43;100439.88;5076657;27;51033;-53
2021/12/29 07:08:07;;;;;;;;;0.25;0.00;;;;;18.26;45.39;100442.59;5076766;27;52368;-51
2021/12/29 07:10:32;;;;;;;;;0.25;0.25;;;;;18.26;45.15;100429.75;5076102;27;51046;-48
2021/12/29 07:12:57;;;;;;;;;0.75;0.50;;;;;18.25;45.53;100433.53;5076326;28;51118;-51
2021/12/29 07:15:23;;;;;;;;;1.00;1.00;;;;;18.26;45.31;100437.13;5075591;28;51170;-48
2021/12/29 07:17:48;;;;;;;;;0.50;0.50;;;;;18.25;45.32;100433.53;5076360;27;51017;-48
2021/12/29 07:20:14;;;;;;;;;0.00;0.00;;;;;18.25;45.38;100430.81;5075706;27;51784;-50
2021/12/29 07:22:39;;;;;;;;;0.00;0.00;;;;;18.24;45.46;100431.88;5076720;27;51423;-52
2021/12/29 07:25:05;;;;;;;;;0.75;0.75;;;;;18.25;45.20;100436.28;5076315;27;51001;-52
2021/12/29 07:27:30;;;;;;;;;1.00;0.00;;;;;18.25;45.23;100438.19;5076257;28;50947;-50
2021/12/29 07:29:56;;;;;;;;;0.00;0.00;;;;;18.24;45.38;100440.09;5075958;27;51994;-50
2021/12/29 07:32:21;;;;;;;;;0.00;0.00;;;;;18.25;45.37;100440.94;5076479;27;51121;-51
2021/12/29 07:34:47;;;;;;;;;1.00;1.00;;;;;18.25;45.35;100439.03;5075981;27;50981;-50
2021/12/29 07:37:12;;;;;;;;;0.00;0.00;;;;;18.25;45.48;100439.03;5076080;27;51160;-52
2021/12/29 07:39:38;;;;;;;;;1.50;0.00;;;;;18.24;45.55;100437.34;5075775;28;50903;-50
2021/12/29 07:42:04;;;;;;;;;0.00;0.00;;;;;18.25;44.89;100444.50;5076074;28;51062;-50
2021/12/29 07:44:30;;;;;;;;;1.00;1.00;;;;;18.25;45.49;100441.78;5076200;28;51176;-50
2021/12/29 07:46:57;;;;;;;;;0.75;0.00;;;;;18.25;45.40;100449.16;5076315;27;51085;-53
2021/12/29 07:49:23;;;;;;;;;0.25;0.25;;;;;18.24;45.48;100451.06;5075131;27;52273;-51
2021/12/29 07:51:48;;;;;;;;;0.00;0.00;;;;;18.25;45.64;100447.25;5076017;27;51014;-51
2021/12/29 07:54:14;;;;;;;;;0.00;0.00;;;;;18.25;45.61;100457.38;5076058;28;51127;-50
2021/12/29 07:56:41;;;;;;;;;0.00;0.00;;;;;18.25;45.36;100455.47;5075897;27;51259;-48
2021/12/29 07:59:06;;;;;;;;;0.75;0.75;;;;;18.25;45.40;100449.16;5075440;27;50959;-49
2021/12/29 08:01:32;;;;;;;;;1.50;1.50;;;;;18.24;45.54;100456.53;5075505;28;50959;-50
2021/12/29 08:03:58;;;;;;;;;0.00;0.00;;;;;18.25;45.54;100455.47;5075738;27;51041;-51
2021/12/29 08:06:23;;;;;;;;;0.00;0.00;;;;;18.25;45.38;100458.22;5076126;27;51082;-48
2021/12/29 08:08:49;;;;;;;;;0.75;0.75;;;;;18.25;45.61;100463.69;5075656;27;51920;-49
2021/12/29 08:11:16;;;;;;;;;0.00;0.00;;;;;18.25;45.40;100463.69;5075559;27;51120;-48
2021/12/29 08:13:42;;;;;;;;;0.00;0.00;;;;;18.24;45.50;100473.00;5075673;28;51047;-48
2021/12/29 08:16:07;;;;;;;;;1.00;1.00;;;;;18.25;45.45;100477.41;5075884;28;51116;-49
2021/12/29 08:18:32;;;;;;;;;0.50;0.50;;;;;18.25;45.69;100466.44;5075002;27;51740;-46
2021/12/29 08:20:57;;;;;;;;;1.50;0.50;;;;;18.25;45.53;100476.56;5075376;27;51085;-50
2021/12/29 08:23:23;;;;;;;;;0.00;0.00;;;;;18.25;45.64;100488.38;5075616;27;50985;-47
2021/12/29 08:25:48;;;;;;;;;0.00;0.00;;;;;18.25;45.58;100490.28;5075917;27;51282;-46
2021/12/29 08:28:14;;;;;;;;;0.50;0.50;;;;;18.25;45.56;100485.63;5078903;27;51172;-49
2021/12/29 08:30:39;;;;;;;;;1.75;1.75;;;;;18.24;45.56;100492.19;5079019;28;50941;-48
2021/12/29 08:33:05;;;;;;;;;0.50;0.50;;;;;18.25;45.48;100502.09;5078688;28;51201;-47
2021/12/29 08:35:31;;;;;;;;;0.00;0.00;;;;;18.25;45.73;100496.59;5078832;28;51015;-48
2021/12/29 08:37:57;;;;;;;;;0.00;0.00;;;;;18.26;45.40;100500.19;5078510;28;51806;-48
2021/12/29 08:40:23;;;;;;;;;0.75;0.75;;;;;18.25;45.13;100493.88;5078737;28;50903;-49
2021/12/29 08:42:48;;;;;;;;;1.75;0.25;;;;;18.25;45.61;100496.59;5079130;28;51160;-48
2021/12/29 08:45:16;;;;;;;;;0.75;0.75;;;;;18.25;45.58;100496.59;5078949;27;51205;-48
2021/12/29 08:47:44;;;;;;;;;1.00;1.00;;;;;18.24;45.48;100492.19;5078414;28;52041;-49
2021/12/29 08:50:12;;;;;;;;;1.25;0.50;;;;;18.25;45.30;100485.63;5078304;27;51257;-48
2021/12/29 08:52:38;;;;;;;;;0.75;0.75;;;;;18.25;45.73;100490.28;5078639;27;51052;-47
2021/12/29 08:55:05;;;;;;;;;2.00;0.50;;;;;18.25;45.50;100485.63;5078992;28;52024;-49
2021/12/29 08:57:31;;;;;;;;;1.00;1.00;;;;;18.25;45.63;100484.78;5076604;28;51965;-48
2021/12/29 08:59:56;;;;;;;;;1.00;1.00;;;;;18.26;45.40;100487.31;5078026;28;50993;-50
2021/12/29 09:02:22;;;;;;;;;1.00;1.00;;;;;18.26;45.60;100494.69;5078731;28;51067;-48
2021/12/29 09:04:47;;;;;;;;;1.25;1.00;;;;;18.26;45.61;100492.81;5078476;28;50969;-46
2021/12/29 09:07:12;;;;;;;;;2.00;1.00;;;;;18.26;45.57;100490.06;5078009;28;51843;-52
2021/12/29 09:09:38;;;;;;;;;2.00;2.00;;;;;18.26;45.52;100491.97;5078453;28;51275;-52
2021/12/29 09:12:03;;;;;;;;;1.00;0.75;;;;;18.27;45.67;100491.75;5078385;28;51047;-50
2021/12/29 09:14:29;;;;;;;;;1.00;1.00;;;;;18.26;46.00;100481.84;5078189;27;50984;-47
2021/12/29 09:16:54;;;;;;;;;1.00;1.00;;;;;18.26;45.75;100481.84;5077982;27;50966;-50
2021/12/29 09:19:22;;;;;;;;;1.00;1.00;;;;;18.27;45.55;100482.69;5077582;28;51075;-51
2021/12/29 09:21:52;;;;;;;;;0.00;0.00;;;;;18.26;45.68;100462.63;5076791;28;51091;-49
2021/12/29 09:24:17;;;;;;;;;0.00;0.00;;;;;18.28;45.72;100473.38;5078391;27;51351;-50
2021/12/29 09:26:42;;;;;;;;;0.00;0.00;;;;;18.28;45.71;100482.44;5077323;27;51810;-50
2021/12/29 09:29:08;;;;;;;;;1.50;0.00;;;;;18.26;45.46;100483.75;5077967;27;50966;-46
2021/12/29 09:31:33;;;;;;;;;1.00;1.00;;;;;18.28;45.58;100481.63;5078149;27;51105;-49
2021/12/29 09:33:59;;;;;;;;;0.00;0.00;;;;;18.28;45.74;100493.41;5077747;28;50968;-47
2021/12/29 09:36:24;;;;;;;;;2.00;1.00;;;;;18.27;45.67;100486.25;5077370;28;50971;-49
2021/12/29 09:38:50;;;;;;;;;0.50;0.50;;;;;18.28;45.80;100484.34;5076709;27;51154;-51
2021/12/29 09:41:17;;;;;;;;;0.50;0.50;;;;;18.28;45.80;100474.22;5077737;27;50978;-52
2021/12/29 09:43:45;;;;;;;;;0.50;0.50;;;;;18.28;45.75;100476.97;5077935;27;51335;-50
2021/12/29 09:46:11;;;;;;;;;0.00;0.00;;;;;18.28;45.59;100476.97;5077350;27;52388;-52
2021/12/29 09:48:36;;;;;;;;;1.00;1.00;;;;;18.28;45.63;100474.22;5076991;27;51030;-49
2021/12/29 09:51:04;;;;;;;;;0.00;0.00;;;;;18.29;45.68;100472.31;5077683;27;51120;-50
2021/12/29 09:53:30;;;;;;;;;0.50;0.50;;;;;18.29;45.62;100469.59;5077589;27;51318;-49
2021/12/29 09:55:55;;;;;;;;;1.00;1.00;;;;;18.29;45.76;100469.59;5076687;28;51651;-50
2021/12/29 09:58:21;;;;;;;;;0.00;0.00;;;;;18.29;45.71;100480.56;5076984;27;51127;-49
2021/12/29 10:00:54;;;;;;;;;0.50;0.50;;;;;18.30;45.50;100482.22;5076858;27;51247;-48
2021/12/29 10:03:22;;;;;;;;;0.50;0.00;;;;;18.28;45.70;100474.22;5077111;27;51175;-52
2021/12/29 10:05:51;;;;;;;;;1.00;1.00;;;;;18.30;45.84;100482.22;5075396;28;51010;-47
2021/12/29 10:08:27;;;;;;;;;3.00;1.00;;;;;18.29;45.71;100473.16;5076868;27;51125;-52
2021/12/29 10:10:57;;;;;;;;;0.75;0.75;;;;;18.30;45.66;100472.09;5075539;28;51188;-52
2021/12/29 10:13:22;;;;;;;;;0.00;0.00;;;;;18.30;45.93;100474.84;5076551;27;51339;-49
2021/12/29 10:15:54;;;;;;;;;0.75;0.75;;;;;18.30;45.74;100474.84;5076333;27;51738;-48
2021/12/29 10:18:22;;;;;;;;;1.00;1.00;;;;;18.30;45.77;100476.75;5076121;28;51080;-48
2021/12/29 10:21:09;;;;;;;;;1.50;1.00;;;;;18.30;45.72;100477.59;5076650;27;51147;-49
2021/12/29 10:23:47;;;;;;;;;1.75;0.75;;;;;18.31;45.74;100482.00;5076762;27;51013;-50
2021/12/29 10:26:16;;;;;;;;;2.00;0.00;;;;;18.30;45.60;100472.09;5076429;27;51964;-49
2021/12/29 10:28:47;;;;;;;;;1.75;0.50;;;;;18.31;45.72;100484.75;5076466;27;51192;-50
2021/12/29 10:31:15;;;;;;;;;3.00;1.00;;;;;18.31;45.75;100495.72;5076520;27;51149;-48
2021/12/29 10:33:46;;;;;;;;;1.00;1.00;;;;;18.31;45.65;100495.72;5076206;27;50973;-46
2021/12/29 10:36:13;;;;;;;;;1.00;1.00;;;;;18.31;45.76;100495.72;5076163;27;53665;-48
2021/12/29 10:38:38;;;;;;;;;1.25;1.00;;;;;18.32;45.87;100497.41;5076488;27;51086;-49
2021/12/29 10:41:04;;;;;;;;;1.00;1.00;;;;;18.32;46.04;100494.66;5076997;27;51220;-51
2021/12/29 10:43:30;;;;;;;;;1.00;1.00;;;;;18.31;45.79;100492.97;5076376;27;51425;-48
2021/12/29 10:45:57;;;;;;;;;1.00;1.00;;;;;18.33;45.74;100492.75;5076117;27;51944;-49
2021/12/29 10:48:25;;;;;;;;;0.50;0.50;;;;;18.33;45.67;100500.97;5075557;28;51156;-47
2021/12/29 10:51:04;;;;;;;;;4.00;1.25;;;;;18.32;45.90;100497.41;5075807;28;51050;-48
2021/12/29 10:53:32;;;;;;;;;1.00;1.00;;;;;18.33;45.79;100490.84;5076335;28;51382;-46
2021/12/29 10:55:58;;;;;;;;;0.25;0.25;;;;;18.34;45.87;100499.91;5075796;27;52076;-46
2021/12/29 10:58:27;;;;;;;;;2.00;2.00;;;;;18.34;45.89;100503.53;5075607;28;51399;-48
2021/12/29 11:01:01;;;;;;;;;2.50;1.00;;;;;18.33;45.97;100507.31;5076033;27;51178;-47
2021/12/29 11:03:28;;;;;;;;;3.25;2.00;;;;;18.35;45.91;100501.63;5075652;27;51303;-47
2021/12/29 11:06:00;;;;;;;;;1.00;1.00;;;;;18.34;46.06;100506.28;5075580;27;51384;-51
2021/12/29 11:08:29;;;;;;;;;1.00;1.00;;;;;18.35;45.81;100515.34;5075501;27;51236;-52
2021/12/29 11:11:05;;;;;;;;;2.00;2.00;;;;;18.35;45.85;100510.69;5075832;27;51453;-50
2021/12/29 11:13:32;;;;;;;;;2.00;1.00;;;;;18.35;46.13;100513.44;5075718;27;50948;-49
2021/12/29 11:15:59;;;;;;;;;4.00;1.75;;;;;18.36;45.85;100512.38;5075047;27;51990;-48
2021/12/29 11:18:25;;;;;;;;;0.50;0.50;;;;;18.36;46.27;100517.88;5075200;27;51084;-49
2021/12/29 11:20:57;;;;;;;;;1.00;1.00;;;;;18.37;46.07;100514.06;5075521;27;51071;-51
2021/12/29 11:23:23;;;;;;;;;2.00;2.00;;;;;18.37;46.05;100513.22;5075715;27;50961;-50
2021/12/29 11:25:51;;;;;;;;;1.00;1.00;;;;;18.38;46.17;100520.38;5075314;28;51212;-50
2021/12/29 11:28:29;;;;;;;;;1.00;1.00;;;;;18.38;46.10;100523.13;5075598;27;51167;-51